createdAt,value
2017-01-29T00:00:33.110Z,0
2017-01-29T00:01:33.083Z,0
2017-01-29T00:02:33.083Z,0
2017-01-29T00:03:33.050Z,0
2017-01-29T00:04:33.029Z,0
2017-01-29T00:05:33.005Z,0
2017-01-29T00:06:32.982Z,0
2017-01-29T00:07:32.968Z,0
2017-01-29T00:08:32.950Z,0
2017-01-29T00:09:32.940Z,0
2017-01-29T00:10:32.898Z,0
2017-01-29T00:11:32.895Z,0
2017-01-29T00:12:32.877Z,0
2017-01-29T00:13:32.829Z,0
2017-01-29T00:14:32.830Z,0
2017-01-29T00:15:32.799Z,0
2017-01-29T00:16:32.779Z,0
2017-01-29T00:17:32.747Z,0
2017-01-29T00:18:32.713Z,0
2017-01-29T00:19:32.702Z,0
2017-01-29T00:20:32.694Z,0
2017-01-29T00:21:32.672Z,0
2017-01-29T00:22:32.664Z,0
2017-01-29T00:23:32.624Z,0
2017-01-29T00:24:32.614Z,0
2017-01-29T00:25:32.595Z,0
2017-01-29T00:26:32.574Z,0
2017-01-29T00:27:32.560Z,0
2017-01-29T00:28:32.547Z,0
2017-01-29T00:29:32.520Z,0
2017-01-29T00:30:32.489Z,0
2017-01-29T00:31:32.493Z,0
2017-01-29T00:32:32.426Z,0
2017-01-29T00:33:32.043Z,0
2017-01-29T00:34:32.402Z,0
2017-01-29T00:35:32.387Z,0
2017-01-29T00:36:32.387Z,0
2017-01-29T00:37:32.364Z,0
2017-01-29T00:38:32.325Z,0
2017-01-29T00:39:32.299Z,0
2017-01-29T00:40:32.277Z,0
2017-01-29T00:41:32.261Z,0
2017-01-29T00:42:32.222Z,0
2017-01-29T00:43:32.226Z,0
2017-01-29T00:44:32.199Z,0
2017-01-29T00:45:32.178Z,0
2017-01-29T00:46:32.196Z,0
2017-01-29T00:47:32.137Z,0
2017-01-29T00:48:32.132Z,0
2017-01-29T00:49:32.115Z,0
2017-01-29T00:50:32.076Z,0
2017-01-29T00:51:32.058Z,0
2017-01-29T00:52:32.046Z,0
2017-01-29T00:53:32.037Z,0
2017-01-29T00:54:32.008Z,0
2017-01-29T00:55:31.990Z,0
2017-01-29T00:56:31.959Z,0
2017-01-29T00:57:31.968Z,0
2017-01-29T00:58:31.925Z,0
2017-01-29T00:59:31.915Z,0
2017-01-29T01:00:31.881Z,0
2017-01-29T01:01:31.881Z,0
2017-01-29T01:02:31.859Z,0
2017-01-29T01:03:31.828Z,0
2017-01-29T01:04:31.810Z,0
2017-01-29T01:05:31.799Z,0
2017-01-29T01:06:31.774Z,0
2017-01-29T01:07:31.761Z,0
2017-01-29T01:08:31.717Z,0
2017-01-29T01:09:31.689Z,0
2017-01-29T01:10:31.678Z,0
2017-01-29T01:11:31.671Z,0
2017-01-29T01:12:31.652Z,0
2017-01-29T01:13:31.639Z,0
2017-01-29T01:14:31.604Z,0
2017-01-29T01:15:31.597Z,0
2017-01-29T01:16:31.580Z,0
2017-01-29T01:17:31.535Z,0
2017-01-29T01:18:31.525Z,0
2017-01-29T01:19:31.530Z,0
2017-01-29T01:20:31.494Z,0
2017-01-29T01:21:31.492Z,0
2017-01-29T01:22:31.457Z,0
2017-01-29T01:23:31.451Z,0
2017-01-29T01:24:31.420Z,0
2017-01-29T01:25:31.406Z,0
2017-01-29T01:26:31.421Z,0
2017-01-29T01:27:31.364Z,0
2017-01-29T01:28:31.350Z,0
2017-01-29T01:29:31.344Z,0
2017-01-29T01:30:31.305Z,0
2017-01-29T01:31:31.281Z,0
2017-01-29T01:32:31.282Z,0
2017-01-29T01:33:31.252Z,0
2017-01-29T01:34:31.213Z,0
2017-01-29T01:35:31.204Z,0
2017-01-29T01:36:30.809Z,0
2017-01-29T01:37:31.176Z,0
2017-01-29T01:38:31.169Z,0
2017-01-29T01:39:31.146Z,0
2017-01-29T01:40:31.115Z,0
2017-01-29T01:41:31.091Z,0
2017-01-29T01:42:31.089Z,0
2017-01-29T01:43:31.077Z,0
2017-01-29T01:44:31.039Z,0
2017-01-29T01:45:31.035Z,0
2017-01-29T01:46:31.031Z,0
2017-01-29T01:47:30.983Z,0
2017-01-29T01:48:30.960Z,0
2017-01-29T01:49:30.977Z,0
2017-01-29T01:50:30.926Z,0
2017-01-29T01:51:30.915Z,0
2017-01-29T01:52:30.893Z,0
2017-01-29T01:53:30.861Z,0
2017-01-29T01:54:30.844Z,0
2017-01-29T01:55:30.825Z,0
2017-01-29T01:56:30.823Z,0
2017-01-29T01:57:30.793Z,0
2017-01-29T01:58:30.774Z,0
2017-01-29T01:59:30.749Z,0
2017-01-29T02:00:30.769Z,0
2017-01-29T02:01:30.729Z,0
2017-01-29T02:02:30.711Z,0
2017-01-29T02:03:30.663Z,0
2017-01-29T02:04:30.672Z,0
2017-01-29T02:05:30.638Z,0
2017-01-29T02:06:30.624Z,0
2017-01-29T02:07:30.607Z,0
2017-01-29T02:08:30.588Z,0
2017-01-29T02:09:30.569Z,0
2017-01-29T02:10:30.554Z,0
2017-01-29T02:11:30.550Z,0
2017-01-29T02:12:30.517Z,0
2017-01-29T02:13:30.504Z,0
2017-01-29T02:14:30.467Z,0
2017-01-29T02:15:30.465Z,0
2017-01-29T02:16:30.452Z,0
2017-01-29T02:17:30.407Z,0
2017-01-29T02:18:30.375Z,0
2017-01-29T02:19:30.381Z,0
2017-01-29T02:20:30.376Z,0
2017-01-29T02:21:30.342Z,0
2017-01-29T02:22:30.314Z,0
2017-01-29T02:23:29.940Z,0
2017-01-29T02:24:30.308Z,0
2017-01-29T02:25:30.277Z,0
2017-01-29T02:26:30.237Z,0
2017-01-29T02:27:30.216Z,0
2017-01-29T02:28:30.204Z,0
2017-01-29T02:29:29.816Z,0
2017-01-29T02:30:30.166Z,0
2017-01-29T02:31:30.145Z,0
2017-01-29T02:32:30.137Z,0
2017-01-29T02:33:29.737Z,0
2017-01-29T02:34:30.106Z,0
2017-01-29T02:35:30.072Z,0
2017-01-29T02:36:30.071Z,0
2017-01-29T02:37:29.645Z,0
2017-01-29T02:38:29.649Z,0
2017-01-29T02:39:30.008Z,0
2017-01-29T02:40:29.973Z,0
2017-01-29T02:41:29.970Z,0
2017-01-29T02:42:29.946Z,0
2017-01-29T02:43:29.912Z,0
2017-01-29T02:44:29.915Z,0
2017-01-29T02:45:29.901Z,0
2017-01-29T02:46:29.876Z,0
2017-01-29T02:47:29.867Z,0
2017-01-29T02:48:29.825Z,0
2017-01-29T02:49:29.817Z,0
2017-01-29T02:50:29.797Z,0
2017-01-29T02:51:29.772Z,0
2017-01-29T02:52:29.767Z,0
2017-01-29T02:53:29.763Z,0
2017-01-29T02:54:29.728Z,0
2017-01-29T02:55:29.706Z,0
2017-01-29T02:56:29.677Z,0
2017-01-29T02:57:29.654Z,0
2017-01-29T02:58:29.651Z,0
2017-01-29T02:59:29.636Z,0
2017-01-29T03:00:29.613Z,0
2017-01-29T03:01:29.602Z,0
2017-01-29T03:02:29.577Z,0
2017-01-29T03:03:29.557Z,0
2017-01-29T03:04:29.529Z,0
2017-01-29T03:05:29.495Z,0
2017-01-29T03:06:29.520Z,0
2017-01-29T03:07:29.473Z,0
2017-01-29T03:08:29.471Z,0
2017-01-29T03:09:29.439Z,0
2017-01-29T03:10:29.423Z,0
2017-01-29T03:11:29.384Z,0
2017-01-29T03:12:29.367Z,0
2017-01-29T03:13:29.367Z,0
2017-01-29T03:14:29.332Z,0
2017-01-29T03:15:29.317Z,0
2017-01-29T03:16:29.298Z,0
2017-01-29T03:17:29.269Z,0
2017-01-29T03:18:29.258Z,0
2017-01-29T03:19:29.234Z,0
2017-01-29T03:20:29.216Z,0
2017-01-29T03:21:29.178Z,0
2017-01-29T03:22:29.189Z,0
2017-01-29T03:23:29.154Z,0
2017-01-29T03:24:29.136Z,0
2017-01-29T03:25:29.119Z,0
2017-01-29T03:26:29.097Z,0
2017-01-29T03:27:29.082Z,0
2017-01-29T03:28:29.068Z,0
2017-01-29T03:29:29.032Z,0
2017-01-29T03:30:29.015Z,0
2017-01-29T03:31:29.017Z,0
2017-01-29T03:32:28.983Z,0
2017-01-29T03:33:28.949Z,0
2017-01-29T03:34:29.134Z,0
2017-01-29T03:35:28.147Z,0
2017-01-29T03:36:28.907Z,0
2017-01-29T03:37:28.888Z,0
2017-01-29T03:38:28.484Z,0
2017-01-29T03:39:28.464Z,0
2017-01-29T03:40:28.827Z,0
2017-01-29T03:41:28.807Z,0
2017-01-29T03:42:28.785Z,0
2017-01-29T03:43:28.751Z,0
2017-01-29T03:44:28.737Z,0
2017-01-29T03:45:28.914Z,0
2017-01-29T03:46:28.717Z,0
2017-01-29T03:47:28.700Z,0
2017-01-29T03:48:28.681Z,0
2017-01-29T03:49:28.656Z,0
2017-01-29T03:50:28.604Z,0
2017-01-29T03:51:28.594Z,0
2017-01-29T03:52:28.607Z,0
2017-01-29T03:53:28.574Z,0
2017-01-29T03:54:28.552Z,0
2017-01-29T03:55:28.525Z,0
2017-01-29T03:56:28.514Z,0
2017-01-29T03:57:28.096Z,0
2017-01-29T03:58:28.476Z,0
2017-01-29T03:59:28.465Z,0
2017-01-29T04:00:28.432Z,0
2017-01-29T04:01:28.416Z,0
2017-01-29T04:02:28.402Z,0
2017-01-29T04:03:28.401Z,0
2017-01-29T04:04:28.351Z,0
2017-01-29T04:05:28.351Z,0
2017-01-29T04:06:28.322Z,0
2017-01-29T04:07:28.507Z,0
2017-01-29T04:08:28.279Z,0
2017-01-29T04:09:28.261Z,0
2017-01-29T04:10:28.238Z,0
2017-01-29T04:11:28.230Z,0
2017-01-29T04:12:28.208Z,0
2017-01-29T04:13:28.392Z,0
2017-01-29T04:14:28.151Z,0
2017-01-29T04:15:28.159Z,0
2017-01-29T04:16:28.124Z,0
2017-01-29T04:17:28.111Z,0
2017-01-29T04:18:27.716Z,0
2017-01-29T04:19:28.273Z,0
2017-01-29T04:20:28.032Z,0
2017-01-29T04:21:28.030Z,0
2017-01-29T04:22:28.000Z,0
2017-01-29T04:23:28.010Z,0
2017-01-29T04:24:27.969Z,0
2017-01-29T04:25:27.949Z,0
2017-01-29T04:26:27.933Z,0
2017-01-29T04:27:27.550Z,0
2017-01-29T04:28:27.906Z,0
2017-01-29T04:29:27.877Z,0
2017-01-29T04:30:27.859Z,0
2017-01-29T04:31:27.833Z,0
2017-01-29T04:32:27.829Z,0
2017-01-29T04:33:27.798Z,0
2017-01-29T04:34:27.779Z,0
2017-01-29T04:35:27.749Z,0
2017-01-29T04:36:27.747Z,0
2017-01-29T04:37:27.723Z,0
2017-01-29T04:38:27.692Z,0
2017-01-29T04:39:27.694Z,0
2017-01-29T04:40:27.678Z,0
2017-01-29T04:41:41.012Z,0
2017-01-29T04:42:27.627Z,0
2017-01-29T04:43:27.628Z,0
2017-01-29T04:44:27.579Z,0
2017-01-29T04:45:27.557Z,0
2017-01-29T04:46:27.740Z,0
2017-01-29T04:47:27.742Z,0
2017-01-29T04:48:27.522Z,0
2017-01-29T04:49:27.489Z,0
2017-01-29T04:50:27.463Z,0
2017-01-29T04:51:27.454Z,0
2017-01-29T04:52:27.411Z,0
2017-01-29T04:53:27.419Z,0
2017-01-29T04:54:27.403Z,0
2017-01-29T04:55:27.381Z,0
2017-01-29T04:56:27.396Z,0
2017-01-29T04:57:27.350Z,0
2017-01-29T04:58:27.316Z,0
2017-01-29T04:59:27.290Z,0
2017-01-29T05:00:27.260Z,0
2017-01-29T05:01:27.261Z,0
2017-01-29T05:02:27.248Z,0
2017-01-29T05:03:27.258Z,0
2017-01-29T05:04:27.225Z,0
2017-01-29T05:05:27.185Z,0
2017-01-29T05:06:27.153Z,0
2017-01-29T05:07:27.165Z,0
2017-01-29T05:08:27.125Z,0
2017-01-29T05:09:27.097Z,0
2017-01-29T05:10:27.088Z,0
2017-01-29T05:11:26.673Z,0
2017-01-29T05:12:27.044Z,0
2017-01-29T05:13:27.035Z,0
2017-01-29T05:14:27.004Z,0
2017-01-29T05:15:26.972Z,0
2017-01-29T05:16:26.578Z,0
2017-01-29T05:17:26.945Z,0
2017-01-29T05:18:26.951Z,0
2017-01-29T05:19:26.931Z,0
2017-01-29T05:20:40.525Z,0
2017-01-29T05:21:26.866Z,0
2017-01-29T05:22:26.876Z,0
2017-01-29T05:23:26.829Z,0
2017-01-29T05:24:26.818Z,0
2017-01-29T05:25:27.008Z,0
2017-01-29T05:26:26.393Z,0
2017-01-29T05:27:26.754Z,0
2017-01-29T05:28:26.747Z,0
2017-01-29T05:29:26.720Z,0
2017-01-29T05:30:26.702Z,0
2017-01-29T05:31:26.687Z,0
2017-01-29T05:32:26.657Z,0
2017-01-29T05:33:26.636Z,0
2017-01-29T05:34:26.626Z,0
2017-01-29T05:35:26.608Z,0
2017-01-29T05:36:26.590Z,0
2017-01-29T05:37:26.550Z,0
2017-01-29T05:38:26.529Z,0
2017-01-29T05:39:26.527Z,0
2017-01-29T05:40:26.506Z,0
2017-01-29T05:41:26.486Z,0
2017-01-29T05:42:26.486Z,0
2017-01-29T05:43:26.440Z,0
2017-01-29T05:44:26.410Z,0
2017-01-29T05:45:26.413Z,0
2017-01-29T05:46:26.389Z,0
2017-01-29T05:47:26.377Z,0
2017-01-29T05:48:26.166Z,0
2017-01-29T05:49:26.312Z,0
2017-01-29T05:50:26.317Z,0
2017-01-29T05:51:26.279Z,0
2017-01-29T05:52:26.264Z,0
2017-01-29T05:53:26.455Z,0
2017-01-29T05:54:26.235Z,0
2017-01-29T05:55:26.180Z,0
2017-01-29T05:56:26.186Z,0
2017-01-29T05:57:26.152Z,0
2017-01-29T05:58:26.138Z,0
2017-01-29T05:59:26.330Z,0
2017-01-29T06:00:26.087Z,0
2017-01-29T06:01:25.706Z,0
2017-01-29T06:02:26.080Z,0
2017-01-29T06:03:26.015Z,0
2017-01-29T06:04:26.044Z,0
2017-01-29T06:05:26.000Z,0
2017-01-29T06:06:25.984Z,0
2017-01-29T06:07:25.967Z,0
2017-01-29T06:08:25.946Z,0
2017-01-29T06:09:25.910Z,0
2017-01-29T06:10:25.888Z,0
2017-01-29T06:11:25.868Z,0
2017-01-29T06:12:25.463Z,0
2017-01-29T06:13:25.835Z,0
2017-01-29T06:14:25.808Z,0
2017-01-29T06:15:25.794Z,0
2017-01-29T06:16:25.765Z,0
2017-01-29T06:17:25.744Z,0
2017-01-29T06:18:25.741Z,0
2017-01-29T06:19:25.721Z,0
2017-01-29T06:20:25.682Z,0
2017-01-29T06:21:25.668Z,0
2017-01-29T06:22:25.650Z,0
2017-01-29T06:23:25.631Z,0
2017-01-29T06:24:25.591Z,0
2017-01-29T06:25:25.581Z,0
2017-01-29T06:26:25.783Z,0
2017-01-29T06:27:25.550Z,0
2017-01-29T06:28:25.528Z,0
2017-01-29T06:29:25.484Z,5
2017-01-29T06:30:25.510Z,5
2017-01-29T06:31:25.670Z,5
2017-01-29T06:32:25.428Z,5
2017-01-29T06:33:25.427Z,5
2017-01-29T06:34:25.388Z,10
2017-01-29T06:35:25.372Z,10
2017-01-29T06:36:25.366Z,10
2017-01-29T06:37:25.338Z,15
2017-01-29T06:38:25.312Z,15
2017-01-29T06:39:25.306Z,15
2017-01-29T06:40:25.266Z,20
2017-01-29T06:41:25.242Z,20
2017-01-29T06:42:25.238Z,25
2017-01-29T06:43:25.217Z,25
2017-01-29T06:44:25.189Z,30
2017-01-29T06:45:25.187Z,30
2017-01-29T06:46:25.161Z,35
2017-01-29T06:47:25.136Z,45
2017-01-29T06:48:25.120Z,65
2017-01-29T06:49:25.088Z,75
2017-01-29T06:50:25.066Z,85
2017-01-29T06:51:25.035Z,95
2017-01-29T06:52:25.042Z,110
2017-01-29T06:53:25.018Z,110
2017-01-29T06:54:25.009Z,120
2017-01-29T06:55:24.958Z,120
2017-01-29T06:56:24.927Z,130
2017-01-29T06:57:24.912Z,145
2017-01-29T06:58:24.920Z,150
2017-01-29T06:59:25.085Z,155
2017-01-29T07:00:24.870Z,165
2017-01-29T07:01:24.854Z,175
2017-01-29T07:02:24.841Z,180
2017-01-29T07:03:24.804Z,195
2017-01-29T07:04:24.987Z,210
2017-01-29T07:05:24.759Z,215
2017-01-29T07:06:24.741Z,225
2017-01-29T07:07:24.715Z,215
2017-01-29T07:08:24.739Z,220
2017-01-29T07:09:24.679Z,230
2017-01-29T07:10:24.638Z,230
2017-01-29T07:11:24.632Z,240
2017-01-29T07:12:24.617Z,250
2017-01-29T07:13:24.584Z,265
2017-01-29T07:14:24.581Z,280
2017-01-29T07:15:24.577Z,290
2017-01-29T07:16:24.148Z,300
2017-01-29T07:17:24.522Z,310
2017-01-29T07:18:24.506Z,315
2017-01-29T07:19:24.468Z,330
2017-01-29T07:20:24.469Z,340
2017-01-29T07:21:24.458Z,345
2017-01-29T07:22:24.052Z,355
2017-01-29T07:23:24.406Z,370
2017-01-29T07:24:24.398Z,380
2017-01-29T07:25:24.371Z,395
2017-01-29T07:26:24.366Z,400
2017-01-29T07:27:24.329Z,400
2017-01-29T07:28:24.346Z,410
2017-01-29T07:29:24.310Z,425
2017-01-29T07:30:24.324Z,440
2017-01-29T07:31:24.272Z,450
2017-01-29T07:32:24.464Z,475
2017-01-29T07:33:24.455Z,485
2017-01-29T07:34:24.232Z,490
2017-01-29T07:35:24.223Z,500
2017-01-29T07:36:24.204Z,515
2017-01-29T07:37:24.177Z,540
2017-01-29T07:38:24.175Z,545
2017-01-29T07:39:24.171Z,535
2017-01-29T07:40:24.127Z,545
2017-01-29T07:41:24.126Z,570
2017-01-29T07:42:24.077Z,585
2017-01-29T07:43:23.684Z,595
2017-01-29T07:44:24.059Z,610
2017-01-29T07:45:24.043Z,590
2017-01-29T07:46:24.004Z,580
2017-01-29T07:47:24.009Z,565
2017-01-29T07:48:24.000Z,545
2017-01-29T07:49:23.979Z,555
2017-01-29T07:50:23.980Z,585
2017-01-29T07:51:23.952Z,610
2017-01-29T07:52:23.937Z,645
2017-01-29T07:53:23.545Z,675
2017-01-29T07:54:23.910Z,710
2017-01-29T07:55:23.878Z,695
2017-01-29T07:56:23.877Z,680
2017-01-29T07:57:23.860Z,695
2017-01-29T07:58:23.861Z,740
2017-01-29T07:59:23.863Z,785
2017-01-29T08:00:23.830Z,800
2017-01-29T08:01:23.816Z,830
2017-01-29T08:02:23.800Z,870
2017-01-29T08:03:23.781Z,900
2017-01-29T08:04:23.771Z,880
2017-01-29T08:05:23.756Z,860
2017-01-29T08:06:23.743Z,885
2017-01-29T08:07:23.734Z,910
2017-01-29T08:08:23.706Z,945
2017-01-29T08:09:23.288Z,990
2017-01-29T08:10:23.683Z,995
2017-01-29T08:11:23.658Z,1005
2017-01-29T08:12:23.655Z,1010
2017-01-29T08:13:23.627Z,990
2017-01-29T08:14:23.636Z,970
2017-01-29T08:15:23.623Z,1090
2017-01-29T08:16:23.591Z,1150
2017-01-29T08:17:23.589Z,1095
2017-01-29T08:18:23.559Z,1090
2017-01-29T08:19:23.559Z,1140
2017-01-29T08:20:23.163Z,1115
2017-01-29T08:21:23.141Z,1120
2017-01-29T08:22:23.515Z,1165
2017-01-29T08:23:23.096Z,1145
2017-01-29T08:24:23.496Z,1110
2017-01-29T08:25:23.478Z,1095
2017-01-29T08:26:23.473Z,1130
2017-01-29T08:27:23.447Z,1130
2017-01-29T08:28:23.461Z,1105
2017-01-29T08:29:23.409Z,1115
2017-01-29T08:30:23.400Z,1120
2017-01-29T08:31:23.388Z,1180
2017-01-29T08:32:23.362Z,1305
2017-01-29T08:33:23.393Z,1275
2017-01-29T08:34:23.332Z,1200
2017-01-29T08:35:23.344Z,1245
2017-01-29T08:36:23.330Z,1295
2017-01-29T08:37:23.291Z,1265
2017-01-29T08:38:23.308Z,1395
2017-01-29T08:39:23.321Z,1460
2017-01-29T08:40:23.251Z,1440
2017-01-29T08:41:23.263Z,1410
2017-01-29T08:42:23.298Z,1345
2017-01-29T08:43:23.236Z,1255
2017-01-29T08:44:23.220Z,1170
2017-01-29T08:45:23.197Z,1150
2017-01-29T08:46:22.809Z,1145
2017-01-29T08:47:23.158Z,1135
2017-01-29T08:48:22.788Z,1090
2017-01-29T08:49:23.160Z,1005
2017-01-29T08:50:23.142Z,1120
2017-01-29T08:51:23.126Z,1165
2017-01-29T08:52:23.122Z,965
2017-01-29T08:53:23.111Z,1080
2017-01-29T08:54:23.085Z,1350
2017-01-29T08:55:23.067Z,1515
2017-01-29T08:56:23.061Z,1575
2017-01-29T08:57:23.051Z,1700
2017-01-29T08:58:23.056Z,1675
2017-01-29T08:59:23.047Z,1580
2017-01-29T09:00:23.009Z,1535
2017-01-29T09:01:22.998Z,1435
2017-01-29T09:02:22.986Z,1420
2017-01-29T09:03:23.008Z,1470
2017-01-29T09:04:22.957Z,1560
2017-01-29T09:05:22.552Z,1650
2017-01-29T09:06:22.931Z,1630
2017-01-29T09:07:22.920Z,1635
2017-01-29T09:08:22.521Z,1740
2017-01-29T09:09:22.882Z,1560
2017-01-29T09:10:22.487Z,1555
2017-01-29T09:11:22.468Z,1590
2017-01-29T09:12:22.079Z,1550
2017-01-29T09:13:22.436Z,1310
2017-01-29T09:14:22.812Z,1300
2017-01-29T09:15:22.799Z,1440
2017-01-29T09:16:22.783Z,1665
2017-01-29T09:17:22.397Z,1770
2017-01-29T09:18:22.778Z,1665
2017-01-29T09:19:22.367Z,1555
2017-01-29T09:20:22.755Z,1560
2017-01-29T09:21:22.362Z,1680
2017-01-29T09:22:22.710Z,1640
2017-01-29T09:23:22.726Z,1330
2017-01-29T09:24:22.298Z,1155
2017-01-29T09:25:22.688Z,1130
2017-01-29T09:26:22.674Z,1015
2017-01-29T09:27:22.650Z,1380
2017-01-29T09:28:22.638Z,1835
2017-01-29T09:29:22.630Z,2095
2017-01-29T09:30:22.617Z,1875
2017-01-29T09:31:22.592Z,1750
2017-01-29T09:32:22.202Z,1675
2017-01-29T09:33:22.592Z,1580
2017-01-29T09:34:22.175Z,1725
2017-01-29T09:35:22.543Z,1940
2017-01-29T09:36:22.546Z,2135
2017-01-29T09:37:22.143Z,2140
2017-01-29T09:38:22.498Z,1765
2017-01-29T09:39:22.533Z,1535
2017-01-29T09:40:22.495Z,1490
2017-01-29T09:41:22.484Z,1585
2017-01-29T09:42:22.461Z,1825
2017-01-29T09:43:22.446Z,1945
2017-01-29T09:44:22.432Z,1955
2017-01-29T09:45:22.409Z,1950
2017-01-29T09:46:22.384Z,1975
2017-01-29T09:47:22.001Z,1745
2017-01-29T09:48:22.370Z,1875
2017-01-29T09:49:22.371Z,1870
2017-01-29T09:50:21.980Z,1705
2017-01-29T09:51:22.356Z,1920
2017-01-29T09:52:22.353Z,1975
2017-01-29T09:53:21.937Z,1920
2017-01-29T09:54:22.319Z,1855
2017-01-29T09:55:21.893Z,1405
2017-01-29T09:56:22.287Z,1835
2017-01-29T09:57:22.262Z,2150
2017-01-29T09:58:21.872Z,2150
2017-01-29T09:59:22.236Z,1980
2017-01-29T10:00:21.848Z,1990
2017-01-29T10:01:21.816Z,1985
2017-01-29T10:02:22.198Z,1965
2017-01-29T10:03:22.216Z,2045
2017-01-29T10:04:21.783Z,2015
2017-01-29T10:05:22.176Z,1785
2017-01-29T10:06:22.150Z,1810
2017-01-29T10:07:22.145Z,1985
2017-01-29T10:08:22.127Z,2185
2017-01-29T10:09:21.741Z,2275
2017-01-29T10:10:21.727Z,2455
2017-01-29T10:11:21.714Z,2330
2017-01-29T10:12:22.074Z,2120
2017-01-29T10:13:21.661Z,2135
2017-01-29T10:14:22.055Z,2010
2017-01-29T10:15:22.044Z,1940
2017-01-29T10:16:22.053Z,1905
2017-01-29T10:17:22.017Z,1735
2017-01-29T10:18:21.996Z,2140
2017-01-29T10:19:21.996Z,1995
2017-01-29T10:20:21.601Z,1945
2017-01-29T10:21:21.588Z,2050
2017-01-29T10:22:21.959Z,2060
2017-01-29T10:23:21.937Z,2070
2017-01-29T10:24:21.937Z,2135
2017-01-29T10:25:21.933Z,2040
2017-01-29T10:26:21.922Z,2070
2017-01-29T10:27:21.902Z,2205
2017-01-29T10:28:21.882Z,2070
2017-01-29T10:29:21.494Z,1970
2017-01-29T10:30:21.479Z,2260
2017-01-29T10:31:21.876Z,2275
2017-01-29T10:32:21.441Z,1990
2017-01-29T10:33:21.810Z,2015
2017-01-29T10:34:21.838Z,1925
2017-01-29T10:35:21.416Z,1920
2017-01-29T10:36:21.805Z,2060
2017-01-29T10:37:21.400Z,2005
2017-01-29T10:38:21.379Z,2020
2017-01-29T10:39:21.776Z,1985
2017-01-29T10:40:21.742Z,1795
2017-01-29T10:41:21.351Z,1855
2017-01-29T10:42:21.736Z,1840
2017-01-29T10:43:21.781Z,2170
2017-01-29T10:44:21.710Z,2290
2017-01-29T10:45:21.711Z,2055
2017-01-29T10:46:21.668Z,2015
2017-01-29T10:47:21.679Z,2015
2017-01-29T10:48:21.271Z,2275
2017-01-29T10:49:21.651Z,2225
2017-01-29T10:50:21.646Z,2210
2017-01-29T10:51:21.608Z,2410
2017-01-29T10:52:21.601Z,2430
2017-01-29T10:53:21.195Z,2100
2017-01-29T10:54:21.597Z,1660
2017-01-29T10:55:21.193Z,1485
2017-01-29T10:56:21.179Z,1490
2017-01-29T10:57:21.550Z,1510
2017-01-29T10:58:21.545Z,1540
2017-01-29T10:59:20.746Z,1760
2017-01-29T11:00:21.537Z,2105
2017-01-29T11:01:21.119Z,2345
2017-01-29T11:02:21.110Z,2220
2017-01-29T11:03:21.493Z,2160
2017-01-29T11:04:21.481Z,2095
2017-01-29T11:05:21.439Z,2075
2017-01-29T11:06:21.474Z,2115
2017-01-29T11:07:21.447Z,2060
2017-01-29T11:08:21.037Z,2180
2017-01-29T11:09:21.421Z,2115
2017-01-29T11:10:21.408Z,1985
2017-01-29T11:11:21.398Z,1975
2017-01-29T11:12:21.396Z,1885
2017-01-29T11:13:21.362Z,2040
2017-01-29T11:14:21.337Z,2225
2017-01-29T11:15:21.382Z,2400
2017-01-29T11:16:20.967Z,2290
2017-01-29T11:17:21.326Z,2105
2017-01-29T11:18:21.340Z,2100
2017-01-29T11:19:20.917Z,2105
2017-01-29T11:20:21.293Z,1960
2017-01-29T11:21:21.280Z,2240
2017-01-29T11:22:21.262Z,2285
2017-01-29T11:23:21.230Z,2110
2017-01-29T11:24:20.862Z,2135
2017-01-29T11:25:21.211Z,2075
2017-01-29T11:26:21.191Z,2135
2017-01-29T11:27:21.215Z,2250
2017-01-29T11:28:21.177Z,2215
2017-01-29T11:29:21.165Z,2235
2017-01-29T11:30:20.768Z,2255
2017-01-29T11:31:20.772Z,2275
2017-01-29T11:32:21.148Z,2115
2017-01-29T11:33:21.150Z,1910
2017-01-29T11:34:21.137Z,1845
2017-01-29T11:35:21.103Z,1885
2017-01-29T11:36:21.088Z,2040
2017-01-29T11:37:20.690Z,1930
2017-01-29T11:38:21.068Z,1915
2017-01-29T11:39:21.063Z,1880
2017-01-29T11:40:21.045Z,1745
2017-01-29T11:41:21.046Z,1795
2017-01-29T11:42:21.017Z,1950
2017-01-29T11:43:21.003Z,1990
2017-01-29T11:44:20.992Z,1955
2017-01-29T11:45:20.987Z,2180
2017-01-29T11:46:20.950Z,2195
2017-01-29T11:47:20.943Z,2065
2017-01-29T11:48:20.939Z,2055
2017-01-29T11:49:20.947Z,2185
2017-01-29T11:50:20.910Z,2185
2017-01-29T11:51:20.893Z,2020
2017-01-29T11:52:20.887Z,2030
2017-01-29T11:53:20.885Z,2265
2017-01-29T11:54:20.881Z,2320
2017-01-29T11:55:20.495Z,2495
2017-01-29T11:56:20.823Z,2360
2017-01-29T11:57:20.830Z,2080
2017-01-29T11:58:20.443Z,1940
2017-01-29T11:59:20.820Z,1995
2017-01-29T12:00:20.399Z,2095
2017-01-29T12:01:20.769Z,2110
2017-01-29T12:02:20.761Z,2075
2017-01-29T12:03:20.775Z,2135
2017-01-29T12:04:20.355Z,2145
2017-01-29T12:05:20.742Z,2185
2017-01-29T12:06:20.707Z,2370
2017-01-29T12:07:20.322Z,2225
2017-01-29T12:08:20.681Z,2220
2017-01-29T12:09:20.303Z,2575
2017-01-29T12:10:20.691Z,2525
2017-01-29T12:11:20.653Z,2300
2017-01-29T12:12:20.641Z,2295
2017-01-29T12:13:20.640Z,2175
2017-01-29T12:14:20.663Z,2135
2017-01-29T12:15:20.600Z,2260
2017-01-29T12:16:20.583Z,2185
2017-01-29T12:17:20.576Z,2185
2017-01-29T12:18:20.576Z,2315
2017-01-29T12:19:20.563Z,2335
2017-01-29T12:20:20.148Z,2300
2017-01-29T12:21:20.517Z,2315
2017-01-29T12:22:20.507Z,2235
2017-01-29T12:23:20.112Z,2355
2017-01-29T12:24:20.498Z,2370
2017-01-29T12:25:20.067Z,2420
2017-01-29T12:26:20.065Z,2395
2017-01-29T12:27:20.449Z,2325
2017-01-29T12:28:20.065Z,2360
2017-01-29T12:29:20.035Z,2150
2017-01-29T12:30:20.447Z,2275
2017-01-29T12:31:19.999Z,2320
2017-01-29T12:32:19.987Z,2120
2017-01-29T12:33:19.981Z,2295
2017-01-29T12:34:20.357Z,2175
2017-01-29T12:35:20.333Z,2115
2017-01-29T12:36:20.331Z,2090
2017-01-29T12:37:20.329Z,2210
2017-01-29T12:38:20.319Z,2165
2017-01-29T12:39:20.295Z,2150
2017-01-29T12:40:20.279Z,2230
2017-01-29T12:41:20.264Z,2170
2017-01-29T12:42:19.862Z,2305
2017-01-29T12:43:20.243Z,2370
2017-01-29T12:44:20.204Z,2035
2017-01-29T12:45:20.203Z,1775
2017-01-29T12:46:20.203Z,2065
2017-01-29T12:47:20.192Z,2250
2017-01-29T12:48:20.182Z,2395
2017-01-29T12:49:19.800Z,2255
2017-01-29T12:50:19.759Z,1900
2017-01-29T12:51:20.120Z,1910
2017-01-29T12:52:19.721Z,1910
2017-01-29T12:53:20.136Z,1790
2017-01-29T12:54:19.690Z,1875
2017-01-29T12:55:19.697Z,1995
2017-01-29T12:56:20.055Z,1815
2017-01-29T12:57:19.654Z,1580
2017-01-29T12:58:19.646Z,1610
2017-01-29T12:59:20.036Z,1675
2017-01-29T13:00:20.007Z,1690
2017-01-29T13:01:20.028Z,1940
2017-01-29T13:02:19.579Z,1780
2017-01-29T13:03:19.984Z,1685
2017-01-29T13:04:19.571Z,1820
2017-01-29T13:05:19.919Z,1910
2017-01-29T13:06:19.536Z,1965
2017-01-29T13:07:19.910Z,1885
2017-01-29T13:08:19.907Z,1805
2017-01-29T13:09:19.493Z,1845
2017-01-29T13:10:19.864Z,1880
2017-01-29T13:11:19.871Z,1730
2017-01-29T13:12:19.073Z,1660
2017-01-29T13:13:19.470Z,1725
2017-01-29T13:14:19.833Z,1765
2017-01-29T13:15:19.412Z,1715
2017-01-29T13:16:19.413Z,1805
2017-01-29T13:17:19.783Z,1760
2017-01-29T13:18:19.015Z,1595
2017-01-29T13:19:19.752Z,1585
2017-01-29T13:20:19.740Z,1675
2017-01-29T13:21:19.327Z,1590
2017-01-29T13:22:19.731Z,1595
2017-01-29T13:23:19.319Z,1530
2017-01-29T13:24:19.301Z,1510
2017-01-29T13:25:19.288Z,1550
2017-01-29T13:26:19.680Z,1565
2017-01-29T13:27:19.280Z,1565
2017-01-29T13:28:19.253Z,1595
2017-01-29T13:29:19.631Z,1615
2017-01-29T13:30:19.606Z,1685
2017-01-29T13:31:19.595Z,1730
2017-01-29T13:32:19.202Z,1695
2017-01-29T13:33:19.568Z,1610
2017-01-29T13:34:19.165Z,1565
2017-01-29T13:35:19.568Z,1665
2017-01-29T13:36:19.530Z,1810
2017-01-29T13:37:19.507Z,1820
2017-01-29T13:38:19.119Z,1650
2017-01-29T13:39:19.501Z,1535
2017-01-29T13:40:19.490Z,1615
2017-01-29T13:41:19.095Z,1620
2017-01-29T13:42:19.465Z,1695
2017-01-29T13:43:19.427Z,1765
2017-01-29T13:44:19.036Z,1670
2017-01-29T13:45:19.444Z,1655
2017-01-29T13:46:19.016Z,1700
2017-01-29T13:47:19.383Z,1625
2017-01-29T13:48:18.975Z,1500
2017-01-29T13:49:19.366Z,1570
2017-01-29T13:50:19.353Z,1615
2017-01-29T13:51:19.339Z,1450
2017-01-29T13:52:18.957Z,1340
2017-01-29T13:53:19.315Z,1280
2017-01-29T13:54:18.926Z,1305
2017-01-29T13:55:18.910Z,1395
2017-01-29T13:56:18.893Z,1485
2017-01-29T13:57:19.258Z,1495
2017-01-29T13:58:18.867Z,1465
2017-01-29T13:59:18.858Z,1395
2017-01-29T14:00:19.240Z,1505
2017-01-29T14:01:19.204Z,1570